createdAt,value
2018-05-24T00:00:56.427Z,62.30
2018-05-24T00:03:24.127Z,62.20
2018-05-24T00:05:51.741Z,61.70
2018-05-24T00:08:19.355Z,61.40
2018-05-24T00:10:47.953Z,61.50
2018-05-24T00:13:15.558Z,61.40
2018-05-24T00:15:43.363Z,61.20
2018-05-24T00:18:11.764Z,61.00
2018-05-24T00:20:39.590Z,60.90
2018-05-24T00:23:07.116Z,60.80
2018-05-24T00:25:34.735Z,60.30
2018-05-24T00:28:02.281Z,60.20
2018-05-24T00:30:30.164Z,60.10
2018-05-24T00:32:57.679Z,59.90
2018-05-24T00:35:25.187Z,59.70
2018-05-24T00:37:53.128Z,59.50
2018-05-24T00:40:20.657Z,59.20
2018-05-24T00:42:48.192Z,59.40
2018-05-24T00:45:15.805Z,59.50
2018-05-24T00:47:44.052Z,59.60
2018-05-24T00:50:11.712Z,59.60
2018-05-24T00:52:39.413Z,59.80
2018-05-24T00:55:18.891Z,59.80
2018-05-24T00:57:46.415Z,59.80
2018-05-24T01:00:14.684Z,60.10
2018-05-24T01:02:42.211Z,60.10
2018-05-24T01:05:09.726Z,60.10
2018-05-24T01:07:37.240Z,60.30
2018-05-24T01:10:04.771Z,60.30
2018-05-24T01:12:32.364Z,61.00
2018-05-24T01:14:59.978Z,60.30
2018-05-24T01:17:27.514Z,60.20
2018-05-24T01:19:55.818Z,60.30
2018-05-24T01:22:23.569Z,60.30
2018-05-24T01:24:51.843Z,60.60
2018-05-24T01:27:20.117Z,60.80
2018-05-24T01:29:48.396Z,60.90
2018-05-24T01:32:16.074Z,61.00
2018-05-24T01:34:43.689Z,61.20
2018-05-24T01:37:22.958Z,61.30
2018-05-24T01:39:50.785Z,61.60
2018-05-24T01:42:18.321Z,61.80
2018-05-24T01:44:45.916Z,61.90
2018-05-24T01:47:13.454Z,62.20
2018-05-24T01:49:40.981Z,62.40
2018-05-24T01:52:08.485Z,62.50
2018-05-24T01:54:36.120Z,62.80
2018-05-24T01:57:03.742Z,63.00
2018-05-24T01:59:32.045Z,63.30
2018-05-24T02:01:59.670Z,63.30
2018-05-24T02:04:27.201Z,63.50
2018-05-24T02:06:55.558Z,64.00
2018-05-24T02:09:23.367Z,64.00
2018-05-24T02:11:50.880Z,64.20
2018-05-24T02:14:18.727Z,64.40
2018-05-24T02:16:46.260Z,64.70
2018-05-24T02:19:13.848Z,65.00
2018-05-24T02:21:41.388Z,65.40
2018-05-24T02:24:10.057Z,66.20
2018-05-24T02:26:39.201Z,66.50
2018-05-24T02:29:06.751Z,66.40
2018-05-24T02:31:34.520Z,66.80
2018-05-24T02:34:02.399Z,67.00
2018-05-24T02:36:29.905Z,67.40
2018-05-24T02:38:57.535Z,67.70
2018-05-24T02:41:25.055Z,67.90
2018-05-24T02:43:52.551Z,68.10
2018-05-24T02:46:20.120Z,68.20
2018-05-24T02:48:47.663Z,68.30
2018-05-24T02:51:15.172Z,68.60
2018-05-24T02:53:42.694Z,68.60
2018-05-24T02:56:10.195Z,68.70
2018-05-24T02:58:37.697Z,68.70
2018-05-24T03:01:05.238Z,68.80
2018-05-24T03:03:32.795Z,68.80
2018-05-24T03:06:00.321Z,68.80
2018-05-24T03:08:27.951Z,68.60
2018-05-24T03:10:55.589Z,68.60
2018-05-24T03:13:23.707Z,69.10
2018-05-24T03:15:51.289Z,68.10
2018-05-24T03:18:18.785Z,68.00
2018-05-24T03:20:46.309Z,67.70
2018-05-24T03:23:14.601Z,67.30
2018-05-24T03:25:42.123Z,67.30
2018-05-24T03:28:09.635Z,67.00
2018-05-24T03:30:37.169Z,66.50
2018-05-24T03:33:05.788Z,65.80
2018-05-24T03:35:33.590Z,65.80
2018-05-24T03:38:01.106Z,65.40
2018-05-24T03:40:30.341Z,65.30
2018-05-24T03:42:57.867Z,64.70
2018-05-24T03:45:25.485Z,64.20
2018-05-24T03:47:53.312Z,63.90
2018-05-24T03:50:20.824Z,63.50
2018-05-24T03:52:48.330Z,63.20
2018-05-24T03:55:15.853Z,62.70
2018-05-24T03:57:44.119Z,62.00
2018-05-24T04:00:24.325Z,59.70
2018-05-24T04:03:03.734Z,59.70
2018-05-24T04:05:31.468Z,55.40
2018-05-24T04:07:59.743Z,49.60
2018-05-24T04:10:28.145Z,48.80
2018-05-24T04:12:56.431Z,48.30
2018-05-24T04:15:24.693Z,48.30
2018-05-24T04:17:52.463Z,47.80
2018-05-24T04:20:20.845Z,46.30
2018-05-24T04:22:48.588Z,46.40
2018-05-24T04:25:16.880Z,46.50
2018-05-24T04:27:45.465Z,46.50
2018-05-24T04:30:12.962Z,45.90
2018-05-24T04:32:40.487Z,46.50
2018-05-24T04:35:08.811Z,46.10
2018-05-24T04:37:36.360Z,46.10
2018-05-24T04:40:03.957Z,46.80
2018-05-24T04:42:31.817Z,47.30
2018-05-24T04:44:59.486Z,47.50
2018-05-24T04:47:27.000Z,47.20
2018-05-24T04:49:54.509Z,46.20
2018-05-24T04:52:22.053Z,44.90
2018-05-24T04:54:49.581Z,43.60
2018-05-24T04:57:17.265Z,43.80
2018-05-24T04:59:44.762Z,42.70
2018-05-24T05:02:12.948Z,40.80
2018-05-24T05:04:40.497Z,40.80
2018-05-24T05:07:08.005Z,41.00
2018-05-24T05:09:35.657Z,39.70
2018-05-24T05:12:03.520Z,38.60
2018-05-24T05:14:31.049Z,38.00
2018-05-24T05:16:59.397Z,39.10
2018-05-24T05:19:27.049Z,39.20
2018-05-24T05:21:55.919Z,39.40
2018-05-24T05:24:23.443Z,39.40
2018-05-24T05:26:51.034Z,38.20
2018-05-24T05:29:18.591Z,37.00
2018-05-24T05:31:46.099Z,35.40
2018-05-24T05:34:14.809Z,35.10
2018-05-24T05:36:42.315Z,34.90
2018-05-24T05:39:09.867Z,36.00
2018-05-24T05:41:37.468Z,37.20
2018-05-24T05:44:05.000Z,36.30
2018-05-24T05:46:32.559Z,38.60
2018-05-24T05:49:00.248Z,39.00
2018-05-24T05:51:28.280Z,38.60
2018-05-24T05:53:55.983Z,36.60
2018-05-24T05:56:23.506Z,34.80
2018-05-24T05:58:51.397Z,35.50
2018-05-24T06:01:18.945Z,38.30
2018-05-24T06:03:46.644Z,40.40
2018-05-24T06:06:14.208Z,41.20
2018-05-24T06:08:41.760Z,39.60
2018-05-24T06:11:09.396Z,36.90
2018-05-24T06:13:36.893Z,34.40
2018-05-24T06:16:04.528Z,34.30
2018-05-24T06:18:32.059Z,35.10
2018-05-24T06:20:59.610Z,36.60
2018-05-24T06:23:27.184Z,35.00
2018-05-24T06:25:54.972Z,33.30
2018-05-24T06:28:22.523Z,34.20
2018-05-24T06:30:50.625Z,34.30
2018-05-24T06:33:19.137Z,34.40
2018-05-24T06:35:46.772Z,33.90
2018-05-24T06:38:15.236Z,34.40
2018-05-24T06:40:42.963Z,35.30
2018-05-24T06:43:10.561Z,33.90
2018-05-24T06:45:38.212Z,35.00
2018-05-24T06:48:05.764Z,36.90
2018-05-24T06:50:33.360Z,38.80
2018-05-24T06:53:01.165Z,38.80
2018-05-24T06:55:28.789Z,36.40
2018-05-24T06:57:56.492Z,35.00
2018-05-24T07:00:24.034Z,31.80
2018-05-24T07:02:52.392Z,30.00
2018-05-24T07:05:20.287Z,30.00
2018-05-24T07:07:47.875Z,30.50
2018-05-24T07:10:15.558Z,31.10
2018-05-24T07:12:43.099Z,30.00
2018-05-24T07:15:10.724Z,30.40
2018-05-24T07:17:38.246Z,30.80
2018-05-24T07:20:05.858Z,30.50
2018-05-24T07:22:33.364Z,32.00
2018-05-24T07:25:02.769Z,32.20
2018-05-24T07:27:31.140Z,29.30
2018-05-24T07:29:58.921Z,29.30
2018-05-24T07:32:28.929Z,30.00
2018-05-24T07:34:56.611Z,30.00
2018-05-24T07:37:24.934Z,31.50
2018-05-24T07:39:52.519Z,31.40
2018-05-24T07:42:20.034Z,32.60
2018-05-24T07:44:47.687Z,33.90
2018-05-24T07:47:15.226Z,35.00
2018-05-24T07:49:43.534Z,38.40
2018-05-24T07:52:11.036Z,37.80
2018-05-24T07:54:38.770Z,38.00
2018-05-24T07:57:06.532Z,38.50
2018-05-24T07:59:34.050Z,38.90
2018-05-24T08:02:02.376Z,38.50
2018-05-24T08:04:29.928Z,39.00
2018-05-24T08:06:57.503Z,39.20
2018-05-24T08:09:25.798Z,38.60
2018-05-24T08:11:53.567Z,38.90
2018-05-24T08:14:21.118Z,38.10
2018-05-24T08:16:48.732Z,38.40
2018-05-24T08:19:17.069Z,37.70
2018-05-24T08:21:45.419Z,37.70
2018-05-24T08:24:13.152Z,37.20
2018-05-24T08:26:40.708Z,37.60
2018-05-24T08:29:08.375Z,38.00
2018-05-24T08:31:35.939Z,39.10
2018-05-24T08:34:03.804Z,39.80
2018-05-24T08:36:31.303Z,39.60
2018-05-24T08:38:59.389Z,40.60
2018-05-24T08:41:27.201Z,40.80
2018-05-24T08:43:55.501Z,41.80
2018-05-24T08:46:23.024Z,41.70
2018-05-24T08:48:50.631Z,42.70
2018-05-24T08:51:18.287Z,43.80
2018-05-24T08:53:45.792Z,44.40
2018-05-24T08:56:13.340Z,44.60
2018-05-24T08:58:41.795Z,44.10
2018-05-24T09:01:09.327Z,44.10
2018-05-24T09:03:37.982Z,45.70
2018-05-24T09:06:05.509Z,45.10
2018-05-24T09:08:33.042Z,45.60
2018-05-24T09:11:00.564Z,44.60
2018-05-24T09:13:29.274Z,43.90
2018-05-24T09:15:57.040Z,43.90
2018-05-24T09:18:24.869Z,44.70
2018-05-24T09:20:52.493Z,43.50
2018-05-24T09:23:20.057Z,44.00
2018-05-24T09:25:47.572Z,43.50
2018-05-24T09:28:16.511Z,44.40
2018-05-24T09:30:44.049Z,44.10
2018-05-24T09:33:14.989Z,45.10
2018-05-24T09:35:42.598Z,45.20
2018-05-24T09:38:10.118Z,45.80
2018-05-24T09:40:37.675Z,46.00
2018-05-24T09:43:05.277Z,45.90
2018-05-24T09:45:32.861Z,45.00
2018-05-24T09:48:01.155Z,45.50
2018-05-24T09:50:28.673Z,44.80
2018-05-24T09:52:57.374Z,45.20
2018-05-24T09:55:26.374Z,45.80
2018-05-24T09:57:54.509Z,45.90
2018-05-24T10:00:22.886Z,45.30
2018-05-24T10:02:50.651Z,44.80
2018-05-24T10:05:18.433Z,44.90
2018-05-24T10:07:45.939Z,44.60
2018-05-24T10:10:14.235Z,44.10
2018-05-24T10:12:42.369Z,44.00
2018-05-24T10:15:10.628Z,44.10
2018-05-24T10:17:38.366Z,44.10
2018-05-24T10:20:05.986Z,44.70
2018-05-24T10:22:33.543Z,44.70
2018-05-24T10:25:01.063Z,45.00
2018-05-24T10:27:29.248Z,44.90
2018-05-24T10:29:56.798Z,44.90
2018-05-24T10:32:24.455Z,44.00
2018-05-24T10:34:51.963Z,44.20
2018-05-24T10:37:19.539Z,43.60
2018-05-24T10:39:47.740Z,43.90
2018-05-24T10:42:15.697Z,44.10
2018-05-24T10:44:43.445Z,44.70
2018-05-24T10:47:10.997Z,44.60
2018-05-24T10:49:38.508Z,44.20
2018-05-24T10:52:06.066Z,44.60
2018-05-24T10:54:33.608Z,44.20
2018-05-24T10:57:01.330Z,44.00
2018-05-24T10:59:29.722Z,44.20
2018-05-24T11:01:57.647Z,44.10
2018-05-24T11:04:25.198Z,43.80
2018-05-24T11:06:53.100Z,44.50
2018-05-24T11:09:21.503Z,45.30
2018-05-24T11:11:50.430Z,44.10
2018-05-24T11:14:17.993Z,44.00
2018-05-24T11:16:45.622Z,44.30
2018-05-24T11:19:15.424Z,43.90
2018-05-24T11:21:42.970Z,43.90
2018-05-24T11:24:10.543Z,44.20
2018-05-24T11:26:38.959Z,43.90
2018-05-24T11:29:06.549Z,43.80
2018-05-24T11:31:34.071Z,43.40
2018-05-24T11:34:01.737Z,43.30
2018-05-24T11:36:29.302Z,44.10
2018-05-24T11:38:56.831Z,43.50
2018-05-24T11:41:25.711Z,42.60
2018-05-24T11:43:54.094Z,42.60
2018-05-24T11:46:21.755Z,42.90
2018-05-24T11:48:50.815Z,42.90
2018-05-24T11:51:18.358Z,42.90
2018-05-24T11:53:45.874Z,42.60
2018-05-24T11:56:14.459Z,42.80
2018-05-24T11:58:41.989Z,42.80
2018-05-24T12:01:09.651Z,42.90
2018-05-24T12:03:37.169Z,43.20
2018-05-24T12:06:04.698Z,41.80
2018-05-24T12:08:32.258Z,41.90
2018-05-24T12:10:59.847Z,42.60
2018-05-24T12:13:27.551Z,42.30
2018-05-24T12:15:55.139Z,42.20
2018-05-24T12:18:22.791Z,42.40
2018-05-24T12:20:51.048Z,42.10
2018-05-24T12:23:18.589Z,42.50
2018-05-24T12:25:46.493Z,41.80
2018-05-24T12:28:15.101Z,41.80
2018-05-24T12:30:42.605Z,41.70
2018-05-24T12:33:10.195Z,41.80
2018-05-24T12:35:37.784Z,42.00
2018-05-24T12:38:05.290Z,41.40
2018-05-24T12:40:33.050Z,41.60
2018-05-24T12:43:00.583Z,41.40
2018-05-24T12:45:28.648Z,41.50
2018-05-24T12:47:56.219Z,40.90
2018-05-24T12:50:23.742Z,40.50
2018-05-24T12:52:51.235Z,40.90
2018-05-24T12:55:18.952Z,40.70
2018-05-24T12:57:46.516Z,41.10
2018-05-24T13:00:14.016Z,41.30
2018-05-24T13:02:41.527Z,41.00
2018-05-24T13:05:09.851Z,41.70
2018-05-24T13:07:37.497Z,41.40
2018-05-24T13:10:05.833Z,40.90
2018-05-24T13:12:33.393Z,40.80
2018-05-24T13:15:00.950Z,40.80
2018-05-24T13:17:28.482Z,40.70
2018-05-24T13:19:56.154Z,40.00
2018-05-24T13:22:23.917Z,40.20
2018-05-24T13:24:52.375Z,40.40
2018-05-24T13:27:19.898Z,40.20
2018-05-24T13:29:48.289Z,40.30
2018-05-24T13:32:15.941Z,40.40
2018-05-24T13:34:43.592Z,40.60
2018-05-24T13:37:11.134Z,39.70
2018-05-24T13:39:38.725Z,39.40
2018-05-24T13:42:06.247Z,39.30
2018-05-24T13:44:33.893Z,39.70
2018-05-24T13:47:01.417Z,39.10
2018-05-24T13:49:29.712Z,39.60
2018-05-24T13:51:57.270Z,39.70
2018-05-24T13:54:25.164Z,40.10
2018-05-24T13:56:52.676Z,39.70
2018-05-24T13:59:22.155Z,38.60
2018-05-24T14:01:49.772Z,38.60
2018-05-24T14:04:17.227Z,38.50
2018-05-24T14:06:44.818Z,39.20
2018-05-24T14:09:12.333Z,39.50
2018-05-24T14:11:39.864Z,40.20
2018-05-24T14:14:08.400Z,40.10
2018-05-24T14:16:35.938Z,39.40
2018-05-24T14:19:03.495Z,38.20
2018-05-24T14:21:31.030Z,38.40
2018-05-24T14:23:58.579Z,38.40
2018-05-24T14:26:27.148Z,38.70
2018-05-24T14:28:54.683Z,39.30
2018-05-24T14:31:22.291Z,39.50
2018-05-24T14:33:49.814Z,39.60
2018-05-24T14:36:17.507Z,39.40
2018-05-24T14:38:45.060Z,39.50
2018-05-24T14:41:12.750Z,39.80
2018-05-24T14:43:41.125Z,39.40
2018-05-24T14:46:08.790Z,39.50
2018-05-24T14:48:36.325Z,39.50
2018-05-24T14:51:04.437Z,39.60
2018-05-24T14:53:32.126Z,39.70
2018-05-24T14:55:59.699Z,39.70
2018-05-24T14:58:27.409Z,39.60
2018-05-24T15:00:55.755Z,39.20
2018-05-24T15:03:23.542Z,39.30
2018-05-24T15:05:51.330Z,39.50
2018-05-24T15:08:19.739Z,39.90
2018-05-24T15:10:47.293Z,40.00
2018-05-24T15:13:27.542Z,39.70
2018-05-24T15:15:55.076Z,40.10
2018-05-24T15:18:22.847Z,40.30
2018-05-24T15:20:51.198Z,39.60
2018-05-24T15:23:18.858Z,39.60
2018-05-24T15:25:46.540Z,40.10
2018-05-24T15:28:14.230Z,40.50
2018-05-24T15:30:41.755Z,40.50
2018-05-24T15:33:10.069Z,40.30
2018-05-24T15:35:37.576Z,40.30
2018-05-24T15:38:05.093Z,40.50
2018-05-24T15:40:33.090Z,40.60
2018-05-24T15:43:00.737Z,40.70
2018-05-24T15:45:28.241Z,40.50
2018-05-24T15:47:55.783Z,40.10
2018-05-24T15:50:23.316Z,39.90
2018-05-24T15:52:50.891Z,39.70
2018-05-24T15:55:18.746Z,40.00
2018-05-24T15:57:46.382Z,40.00
2018-05-24T16:00:14.814Z,40.10
2018-05-24T16:02:42.510Z,40.00
2018-05-24T16:05:10.194Z,40.00
2018-05-24T16:07:37.709Z,39.90
2018-05-24T16:10:06.015Z,40.30
2018-05-24T16:12:33.693Z,39.70
2018-05-24T16:15:04.171Z,40.00
2018-05-24T16:17:31.798Z,39.80
2018-05-24T16:19:59.396Z,39.60
2018-05-24T16:22:26.962Z,39.80
2018-05-24T16:24:54.483Z,39.60
2018-05-24T16:27:22.012Z,39.60
2018-05-24T16:29:50.321Z,39.60
2018-05-24T16:32:17.989Z,39.60
2018-05-24T16:34:45.541Z,39.50
2018-05-24T16:37:13.402Z,38.60
2018-05-24T16:39:41.351Z,38.70
2018-05-24T16:42:09.879Z,39.00
2018-05-24T16:44:38.345Z,39.00
2018-05-24T16:47:06.212Z,39.10
2018-05-24T16:49:33.875Z,39.00
2018-05-24T16:52:01.461Z,39.50
2018-05-24T16:54:29.055Z,39.50
2018-05-24T16:56:56.750Z,39.80
2018-05-24T16:59:24.409Z,40.00
2018-05-24T17:01:52.009Z,40.80
2018-05-24T17:04:19.520Z,40.30
2018-05-24T17:06:47.942Z,40.60
2018-05-24T17:09:16.183Z,40.60
2018-05-24T17:11:43.975Z,41.20
2018-05-24T17:14:11.603Z,40.80
2018-05-24T17:16:39.157Z,40.90
2018-05-24T17:19:06.846Z,40.80
2018-05-24T17:21:35.328Z,40.80
2018-05-24T17:24:02.874Z,40.80
2018-05-24T17:26:30.490Z,40.80
2018-05-24T17:28:58.146Z,40.70
2018-05-24T17:31:25.718Z,40.50
2018-05-24T17:33:53.259Z,40.50
2018-05-24T17:36:20.873Z,40.30
2018-05-24T17:38:49.376Z,40.80
2018-05-24T17:41:16.933Z,40.90
2018-05-24T17:43:44.541Z,40.90
2018-05-24T17:46:12.128Z,40.80
2018-05-24T17:48:39.661Z,40.90
2018-05-24T17:51:07.362Z,41.00
2018-05-24T17:53:34.918Z,41.20
2018-05-24T17:56:02.499Z,41.20
2018-05-24T17:58:30.082Z,41.20
2018-05-24T18:00:57.993Z,41.40
2018-05-24T18:03:25.818Z,41.50
2018-05-24T18:05:53.477Z,41.50
2018-05-24T18:08:21.247Z,41.40
2018-05-24T18:10:48.800Z,41.40
2018-05-24T18:13:16.355Z,41.30
2018-05-24T18:15:44.024Z,41.20
2018-05-24T18:18:11.534Z,41.30
2018-05-24T18:20:40.551Z,41.50
2018-05-24T18:23:08.194Z,41.50
2018-05-24T18:25:35.735Z,41.60
2018-05-24T18:28:03.280Z,42.10
2018-05-24T18:30:30.876Z,42.00
2018-05-24T18:32:59.292Z,42.30
2018-05-24T18:35:26.898Z,42.30
2018-05-24T18:37:54.450Z,41.70
2018-05-24T18:40:21.983Z,41.80
2018-05-24T18:42:49.533Z,41.90
2018-05-24T18:45:17.099Z,42.70
2018-05-24T18:47:44.653Z,42.30
2018-05-24T18:50:12.178Z,42.40
2018-05-24T18:52:40.586Z,42.70
2018-05-24T18:55:08.090Z,42.70
2018-05-24T18:57:36.020Z,43.00
2018-05-24T19:00:03.890Z,43.10
2018-05-24T19:02:31.570Z,42.90
2018-05-24T19:04:59.413Z,42.90
2018-05-24T19:07:26.981Z,42.80
2018-05-24T19:09:54.557Z,43.00
2018-05-24T19:12:22.102Z,43.00
2018-05-24T19:14:49.778Z,43.00
2018-05-24T19:17:17.396Z,43.00
2018-05-24T19:19:44.951Z,43.00
2018-05-24T19:22:12.515Z,43.30
2018-05-24T19:24:40.098Z,43.30
2018-05-24T19:27:07.790Z,43.40
2018-05-24T19:29:35.486Z,43.50
2018-05-24T19:32:03.405Z,43.60
2018-05-24T19:34:30.975Z,43.80
2018-05-24T19:36:58.556Z,43.80
2018-05-24T19:39:26.187Z,43.90
2018-05-24T19:41:54.257Z,44.10
2018-05-24T19:44:22.172Z,44.20
2018-05-24T19:46:50.795Z,44.40
2018-05-24T19:49:18.315Z,44.40
2018-05-24T19:51:46.017Z,44.50
2018-05-24T19:54:13.562Z,44.10
2018-05-24T19:56:41.658Z,44.60
2018-05-24T19:59:09.242Z,44.70
2018-05-24T20:01:36.880Z,44.80
2018-05-24T20:04:05.071Z,44.80
2018-05-24T20:06:32.715Z,44.90
2018-05-24T20:09:00.415Z,44.90
2018-05-24T20:11:28.704Z,45.00
2018-05-24T20:13:56.279Z,45.20
2018-05-24T20:16:23.832Z,45.20
2018-05-24T20:18:51.911Z,45.30
2018-05-24T20:21:19.479Z,45.40
2018-05-24T20:23:47.775Z,45.60
2018-05-24T20:26:15.325Z,45.50
2018-05-24T20:28:43.649Z,45.60
2018-05-24T20:31:11.280Z,45.60
2018-05-24T20:33:38.812Z,45.60
2018-05-24T20:36:06.527Z,45.70
2018-05-24T20:38:34.387Z,45.80
2018-05-24T20:41:01.932Z,45.90
2018-05-24T20:43:30.131Z,45.90
2018-05-24T20:45:57.987Z,45.90
2018-05-24T20:48:25.723Z,46.00
2018-05-24T20:50:53.295Z,45.70
2018-05-24T20:53:20.838Z,46.10
2018-05-24T20:55:48.520Z,46.10
2018-05-24T20:58:16.075Z,46.30
2018-05-24T21:00:43.594Z,46.40
2018-05-24T21:03:11.190Z,47.00
2018-05-24T21:05:38.750Z,46.50
2018-05-24T21:08:06.387Z,46.60
2018-05-24T21:10:34.798Z,46.50
2018-05-24T21:13:02.673Z,46.40
2018-05-24T21:15:30.378Z,46.50
2018-05-24T21:17:57.918Z,46.70
2018-05-24T21:20:25.482Z,46.70
2018-05-24T21:22:53.031Z,46.90
2018-05-24T21:25:20.572Z,46.90
2018-05-24T21:27:48.115Z,46.90
2018-05-24T21:30:16.613Z,47.20
2018-05-24T21:32:44.388Z,47.10
2018-05-24T21:35:12.001Z,47.20
2018-05-24T21:37:40.183Z,47.20
2018-05-24T21:40:07.824Z,47.50
2018-05-24T21:42:36.111Z,47.60
2018-05-24T21:45:03.672Z,47.60
2018-05-24T21:47:31.228Z,47.70
2018-05-24T21:49:58.746Z,47.80
2018-05-24T21:52:26.278Z,48.00
2018-05-24T21:54:53.890Z,48.20
2018-05-24T21:57:21.512Z,48.20
2018-05-24T21:59:49.218Z,48.40
2018-05-24T22:02:17.056Z,48.60
2018-05-24T22:04:44.559Z,48.60
2018-05-24T22:07:12.133Z,49.30
2018-05-24T22:09:40.441Z,49.00
2018-05-24T22:12:07.981Z,48.90
2018-05-24T22:14:35.651Z,49.10
2018-05-24T22:17:03.245Z,49.20
2018-05-24T22:19:30.813Z,49.40
2018-05-24T22:21:58.353Z,49.50
2018-05-24T22:24:26.058Z,49.70
2018-05-24T22:26:53.673Z,49.80
2018-05-24T22:29:21.402Z,49.90
2018-05-24T22:31:50.016Z,50.30
2018-05-24T22:34:17.531Z,50.30
2018-05-24T22:36:45.864Z,50.50
2018-05-24T22:39:13.432Z,50.50
2018-05-24T22:41:40.952Z,50.70
2018-05-24T22:44:08.623Z,50.80
2018-05-24T22:46:36.139Z,50.90
2018-05-24T22:49:03.847Z,51.00
2018-05-24T22:51:31.598Z,51.10
2018-05-24T22:54:00.034Z,51.20
2018-05-24T22:56:27.559Z,51.30
2018-05-24T22:58:55.810Z,51.50
2018-05-24T23:01:24.130Z,51.70
2018-05-24T23:03:51.639Z,51.70
2018-05-24T23:06:19.207Z,51.80
2018-05-24T23:08:47.600Z,52.10
2018-05-24T23:11:15.138Z,52.10
2018-05-24T23:13:42.640Z,52.20
2018-05-24T23:16:10.161Z,52.30
2018-05-24T23:18:38.713Z,52.40
2018-05-24T23:21:06.252Z,52.50
2018-05-24T23:23:33.904Z,52.70
2018-05-24T23:26:02.005Z,52.80
2018-05-24T23:28:30.457Z,53.00
2018-05-24T23:30:58.238Z,53.20
2018-05-24T23:33:25.940Z,53.40
2018-05-24T23:35:53.718Z,53.50
2018-05-24T23:38:22.049Z,53.80
2018-05-24T23:40:49.597Z,53.80
2018-05-24T23:43:17.362Z,54.00
2018-05-24T23:45:44.920Z,54.20
2018-05-24T23:48:13.009Z,54.20
2018-05-24T23:50:40.938Z,54.30
2018-05-24T23:53:08.680Z,54.50
2018-05-24T23:55:36.961Z,54.60
2018-05-24T23:58:05.235Z,54.70
